sensor_id;sensor_type;location;lat;lon;timestamp;P1;durP1;ratioP1;P2;durP2;ratioP2
8536;SDS011;4306;50.210;10.628;2023-12-28T00:00:19;8.57;;;5.87;;
8536;SDS011;4306;50.210;10.628;2023-12-28T00:02:46;8.13;;;5.10;;
8536;SDS011;4306;50.210;10.628;2023-12-28T00:05:13;5.97;;;3.80;;
8536;SDS011;4306;50.210;10.628;2023-12-28T00:07:41;7.20;;;3.90;;
8536;SDS011;4306;50.210;10.628;2023-12-28T00:10:08;6.67;;;3.93;;
8536;SDS011;4306;50.210;10.628;2023-12-28T00:12:36;9.93;;;4.07;;
8536;SDS011;4306;50.210;10.628;2023-12-28T00:15:03;6.20;;;3.90;;
8536;SDS011;4306;50.210;10.628;2023-12-28T00:17:32;6.50;;;3.83;;
8536;SDS011;4306;50.210;10.628;2023-12-28T00:19:59;6.13;;;3.30;;
8536;SDS011;4306;50.210;10.628;2023-12-28T00:22:26;5.47;;;3.43;;
8536;SDS011;4306;50.210;10.628;2023-12-28T00:24:53;6.50;;;3.57;;
8536;SDS011;4306;50.210;10.628;2023-12-28T00:27:20;6.00;;;3.37;;
8536;SDS011;4306;50.210;10.628;2023-12-28T00:29:47;7.00;;;3.70;;
8536;SDS011;4306;50.210;10.628;2023-12-28T00:32:15;6.10;;;3.87;;
8536;SDS011;4306;50.210;10.628;2023-12-28T00:34:43;6.20;;;3.73;;
8536;SDS011;4306;50.210;10.628;2023-12-28T00:37:10;5.30;;;3.60;;
8536;SDS011;4306;50.210;10.628;2023-12-28T00:39:37;6.50;;;3.50;;
8536;SDS011;4306;50.210;10.628;2023-12-28T00:42:05;6.57;;;3.80;;
8536;SDS011;4306;50.210;10.628;2023-12-28T00:44:33;6.87;;;4.43;;
8536;SDS011;4306;50.210;10.628;2023-12-28T00:47:00;9.43;;;3.80;;
8536;SDS011;4306;50.210;10.628;2023-12-28T00:49:27;7.67;;;3.77;;
8536;SDS011;4306;50.210;10.628;2023-12-28T00:51:55;5.67;;;3.60;;
8536;SDS011;4306;50.210;10.628;2023-12-28T00:54:22;8.70;;;4.20;;
8536;SDS011;4306;50.210;10.628;2023-12-28T00:56:49;6.13;;;3.60;;
8536;SDS011;4306;50.210;10.628;2023-12-28T00:59:16;6.80;;;3.57;;
8536;SDS011;4306;50.210;10.628;2023-12-28T01:01:43;7.93;;;4.47;;
8536;SDS011;4306;50.210;10.628;2023-12-28T01:04:10;7.90;;;3.93;;
8536;SDS011;4306;50.210;10.628;2023-12-28T01:06:37;4.80;;;3.30;;
8536;SDS011;4306;50.210;10.628;2023-12-28T01:09:07;8.30;;;4.00;;
8536;SDS011;4306;50.210;10.628;2023-12-28T01:11:34;6.57;;;3.40;;
8536;SDS011;4306;50.210;10.628;2023-12-28T01:14:01;6.60;;;3.47;;
8536;SDS011;4306;50.210;10.628;2023-12-28T01:16:28;7.60;;;3.60;;
8536;SDS011;4306;50.210;10.628;2023-12-28T01:18:55;6.83;;;3.53;;
8536;SDS011;4306;50.210;10.628;2023-12-28T01:21:22;5.90;;;3.37;;
8536;SDS011;4306;50.210;10.628;2023-12-28T01:23:50;7.27;;;3.63;;
8536;SDS011;4306;50.210;10.628;2023-12-28T01:26:18;5.37;;;3.77;;
8536;SDS011;4306;50.210;10.628;2023-12-28T01:28:46;7.17;;;3.50;;
8536;SDS011;4306;50.210;10.628;2023-12-28T01:31:13;6.30;;;3.80;;
8536;SDS011;4306;50.210;10.628;2023-12-28T01:33:40;7.00;;;3.30;;
8536;SDS011;4306;50.210;10.628;2023-12-28T01:36:15;5.37;;;3.50;;
8536;SDS011;4306;50.210;10.628;2023-12-28T01:38:43;6.40;;;3.47;;
8536;SDS011;4306;50.210;10.628;2023-12-28T01:41:10;9.30;;;3.73;;
8536;SDS011;4306;50.210;10.628;2023-12-28T01:43:39;6.37;;;3.20;;
8536;SDS011;4306;50.210;10.628;2023-12-28T01:46:07;6.13;;;3.30;;
8536;SDS011;4306;50.210;10.628;2023-12-28T01:48:39;5.97;;;3.57;;
8536;SDS011;4306;50.210;10.628;2023-12-28T01:51:07;6.10;;;3.50;;
8536;SDS011;4306;50.210;10.628;2023-12-28T01:53:36;6.93;;;3.37;;
8536;SDS011;4306;50.210;10.628;2023-12-28T01:56:03;5.97;;;3.20;;
8536;SDS011;4306;50.210;10.628;2023-12-28T01:58:31;5.80;;;3.47;;
8536;SDS011;4306;50.210;10.628;2023-12-28T02:01:02;7.70;;;3.13;;
8536;SDS011;4306;50.210;10.628;2023-12-28T02:03:30;4.10;;;2.30;;
8536;SDS011;4306;50.210;10.628;2023-12-28T02:05:57;6.13;;;2.90;;
8536;SDS011;4306;50.210;10.628;2023-12-28T02:08:25;6.40;;;3.03;;
8536;SDS011;4306;50.210;10.628;2023-12-28T02:10:52;4.63;;;2.67;;
8536;SDS011;4306;50.210;10.628;2023-12-28T02:17:06;4.50;;;2.50;;
8536;SDS011;4306;50.210;10.628;2023-12-28T02:19:40;7.53;;;2.63;;
8536;SDS011;4306;50.210;10.628;2023-12-28T02:22:10;5.27;;;2.80;;
8536;SDS011;4306;50.210;10.628;2023-12-28T02:24:59;6.63;;;2.90;;
8536;SDS011;4306;50.210;10.628;2023-12-28T02:27:31;5.63;;;2.80;;
8536;SDS011;4306;50.210;10.628;2023-12-28T02:29:59;4.47;;;2.47;;
8536;SDS011;4306;50.210;10.628;2023-12-28T02:32:28;4.97;;;2.90;;
8536;SDS011;4306;50.210;10.628;2023-12-28T02:35:08;7.25;;;3.72;;
8536;SDS011;4306;50.210;10.628;2023-12-28T02:37:43;5.37;;;2.53;;
8536;SDS011;4306;50.210;10.628;2023-12-28T02:40:16;4.95;;;2.22;;
8536;SDS011;4306;50.210;10.628;2023-12-28T02:42:43;5.28;;;2.85;;
8536;SDS011;4306;50.210;10.628;2023-12-28T02:45:10;5.80;;;2.63;;
8536;SDS011;4306;50.210;10.628;2023-12-28T02:47:37;4.33;;;2.50;;
8536;SDS011;4306;50.210;10.628;2023-12-28T02:50:05;6.63;;;3.07;;
8536;SDS011;4306;50.210;10.628;2023-12-28T02:52:33;4.10;;;2.40;;
8536;SDS011;4306;50.210;10.628;2023-12-28T02:55:00;5.72;;;2.42;;
8536;SDS011;4306;50.210;10.628;2023-12-28T02:57:29;5.57;;;2.00;;
8536;SDS011;4306;50.210;10.628;2023-12-28T02:59:56;4.07;;;2.30;;
8536;SDS011;4306;50.210;10.628;2023-12-28T03:02:26;5.87;;;2.50;;
8536;SDS011;4306;50.210;10.628;2023-12-28T03:04:54;5.30;;;2.50;;
8536;SDS011;4306;50.210;10.628;2023-12-28T03:07:21;4.87;;;2.17;;
8536;SDS011;4306;50.210;10.628;2023-12-28T03:09:48;6.07;;;2.20;;
8536;SDS011;4306;50.210;10.628;2023-12-28T03:12:15;4.20;;;2.40;;
8536;SDS011;4306;50.210;10.628;2023-12-28T03:14:43;4.20;;;2.08;;
8536;SDS011;4306;50.210;10.628;2023-12-28T03:17:10;5.93;;;2.55;;
8536;SDS011;4306;50.210;10.628;2023-12-28T03:19:38;3.70;;;1.90;;
8536;SDS011;4306;50.210;10.628;2023-12-28T03:22:05;4.07;;;2.13;;
8536;SDS011;4306;50.210;10.628;2023-12-28T03:24:32;3.73;;;2.50;;
8536;SDS011;4306;50.210;10.628;2023-12-28T03:26:59;4.75;;;2.25;;
8536;SDS011;4306;50.210;10.628;2023-12-28T03:29:26;5.32;;;2.30;;
8536;SDS011;4306;50.210;10.628;2023-12-28T03:31:55;4.22;;;2.03;;
8536;SDS011;4306;50.210;10.628;2023-12-28T03:34:22;3.85;;;2.20;;
8536;SDS011;4306;50.210;10.628;2023-12-28T03:36:51;3.93;;;2.00;;
8536;SDS011;4306;50.210;10.628;2023-12-28T03:39:18;3.87;;;2.17;;
8536;SDS011;4306;50.210;10.628;2023-12-28T03:41:45;4.20;;;2.10;;
8536;SDS011;4306;50.210;10.628;2023-12-28T03:44:13;3.67;;;1.95;;
8536;SDS011;4306;50.210;10.628;2023-12-28T03:46:40;5.10;;;2.63;;
8536;SDS011;4306;50.210;10.628;2023-12-28T03:49:09;5.13;;;2.30;;
8536;SDS011;4306;50.210;10.628;2023-12-28T03:51:36;3.67;;;2.00;;
8536;SDS011;4306;50.210;10.628;2023-12-28T03:54:03;4.57;;;2.35;;
8536;SDS011;4306;50.210;10.628;2023-12-28T03:56:30;4.80;;;2.00;;
8536;SDS011;4306;50.210;10.628;2023-12-28T03:58:58;4.30;;;2.65;;
8536;SDS011;4306;50.210;10.628;2023-12-28T04:01:25;4.60;;;2.40;;
8536;SDS011;4306;50.210;10.628;2023-12-28T04:03:52;8.63;;;3.90;;
8536;SDS011;4306;50.210;10.628;2023-12-28T04:06:20;8.27;;;2.97;;
8536;SDS011;4306;50.210;10.628;2023-12-28T04:08:47;6.43;;;3.65;;
8536;SDS011;4306;50.210;10.628;2023-12-28T04:11:14;4.35;;;2.45;;
8536;SDS011;4306;50.210;10.628;2023-12-28T04:13:41;4.65;;;2.30;;
8536;SDS011;4306;50.210;10.628;2023-12-28T04:16:11;5.43;;;2.92;;
8536;SDS011;4306;50.210;10.628;2023-12-28T04:18:39;9.60;;;6.13;;
8536;SDS011;4306;50.210;10.628;2023-12-28T04:21:07;7.47;;;4.20;;
8536;SDS011;4306;50.210;10.628;2023-12-28T04:23:37;5.32;;;2.92;;
8536;SDS011;4306;50.210;10.628;2023-12-28T04:26:05;5.32;;;2.70;;
8536;SDS011;4306;50.210;10.628;2023-12-28T04:28:32;5.68;;;3.25;;
8536;SDS011;4306;50.210;10.628;2023-12-28T04:31:01;5.10;;;3.05;;
8536;SDS011;4306;50.210;10.628;2023-12-28T04:33:29;6.30;;;2.92;;
8536;SDS011;4306;50.210;10.628;2023-12-28T04:35:57;5.43;;;3.05;;
8536;SDS011;4306;50.210;10.628;2023-12-28T04:38:28;7.72;;;5.00;;
8536;SDS011;4306;50.210;10.628;2023-12-28T04:40:57;9.02;;;6.18;;
8536;SDS011;4306;50.210;10.628;2023-12-28T04:43:24;6.83;;;3.17;;
8536;SDS011;4306;50.210;10.628;2023-12-28T04:45:51;4.60;;;2.70;;
8536;SDS011;4306;50.210;10.628;2023-12-28T04:48:19;4.68;;;2.17;;
8536;SDS011;4306;50.210;10.628;2023-12-28T04:50:48;5.70;;;2.40;;
8536;SDS011;4306;50.210;10.628;2023-12-28T04:53:16;4.03;;;2.80;;
8536;SDS011;4306;50.210;10.628;2023-12-28T04:55:43;4.60;;;2.60;;
8536;SDS011;4306;50.210;10.628;2023-12-28T04:58:11;4.30;;;2.80;;
8536;SDS011;4306;50.210;10.628;2023-12-28T05:00:38;3.83;;;2.30;;
8536;SDS011;4306;50.210;10.628;2023-12-28T05:03:05;4.28;;;2.45;;
8536;SDS011;4306;50.210;10.628;2023-12-28T05:05:32;4.47;;;2.20;;
8536;SDS011;4306;50.210;10.628;2023-12-28T05:07:59;5.37;;;2.87;;
8536;SDS011;4306;50.210;10.628;2023-12-28T05:10:26;3.70;;;2.37;;
8536;SDS011;4306;50.210;10.628;2023-12-28T05:12:53;4.55;;;2.63;;
8536;SDS011;4306;50.210;10.628;2023-12-28T05:15:22;5.53;;;2.53;;
8536;SDS011;4306;50.210;10.628;2023-12-28T05:17:49;4.07;;;2.30;;
8536;SDS011;4306;50.210;10.628;2023-12-28T05:20:16;7.60;;;4.35;;
8536;SDS011;4306;50.210;10.628;2023-12-28T05:22:43;7.10;;;4.60;;
8536;SDS011;4306;50.210;10.628;2023-12-28T05:25:10;6.72;;;3.00;;
8536;SDS011;4306;50.210;10.628;2023-12-28T05:27:37;4.88;;;2.97;;
8536;SDS011;4306;50.210;10.628;2023-12-28T05:30:05;5.53;;;2.45;;
8536;SDS011;4306;50.210;10.628;2023-12-28T05:32:35;4.35;;;2.60;;
8536;SDS011;4306;50.210;10.628;2023-12-28T05:35:02;4.05;;;2.35;;
8536;SDS011;4306;50.210;10.628;2023-12-28T05:37:30;6.20;;;3.03;;
8536;SDS011;4306;50.210;10.628;2023-12-28T05:39:57;4.07;;;2.38;;
8536;SDS011;4306;50.210;10.628;2023-12-28T05:42:24;4.38;;;2.10;;
8536;SDS011;4306;50.210;10.628;2023-12-28T05:44:51;4.15;;;2.40;;
8536;SDS011;4306;50.210;10.628;2023-12-28T05:47:18;3.60;;;2.38;;
8536;SDS011;4306;50.210;10.628;2023-12-28T05:49:46;4.05;;;2.35;;
8536;SDS011;4306;50.210;10.628;2023-12-28T05:52:13;5.03;;;3.20;;
8536;SDS011;4306;50.210;10.628;2023-12-28T05:54:43;5.00;;;2.50;;
8536;SDS011;4306;50.210;10.628;2023-12-28T05:57:10;3.72;;;2.25;;
8536;SDS011;4306;50.210;10.628;2023-12-28T05:59:37;3.80;;;2.00;;
8536;SDS011;4306;50.210;10.628;2023-12-28T06:02:06;5.90;;;2.72;;
8536;SDS011;4306;50.210;10.628;2023-12-28T06:04:33;4.22;;;2.38;;
8536;SDS011;4306;50.210;10.628;2023-12-28T06:07:01;4.43;;;2.53;;
8536;SDS011;4306;50.210;10.628;2023-12-28T06:09:29;3.35;;;1.98;;
8536;SDS011;4306;50.210;10.628;2023-12-28T06:11:56;5.20;;;2.58;;
8536;SDS011;4306;50.210;10.628;2023-12-28T06:14:23;5.35;;;2.72;;
8536;SDS011;4306;50.210;10.628;2023-12-28T06:16:50;3.65;;;2.08;;
8536;SDS011;4306;50.210;10.628;2023-12-28T06:19:17;3.80;;;2.60;;
8536;SDS011;4306;50.210;10.628;2023-12-28T06:21:44;3.40;;;2.15;;
8536;SDS011;4306;50.210;10.628;2023-12-28T06:24:13;4.80;;;2.92;;
8536;SDS011;4306;50.210;10.628;2023-12-28T06:26:40;4.97;;;2.20;;
8536;SDS011;4306;50.210;10.628;2023-12-28T06:29:07;5.57;;;2.40;;
8536;SDS011;4306;50.210;10.628;2023-12-28T06:31:35;3.87;;;2.30;;
8536;SDS011;4306;50.210;10.628;2023-12-28T06:34:02;3.80;;;2.35;;
8536;SDS011;4306;50.210;10.628;2023-12-28T06:36:29;5.15;;;2.78;;
8536;SDS011;4306;50.210;10.628;2023-12-28T06:38:56;3.95;;;2.55;;
8536;SDS011;4306;50.210;10.628;2023-12-28T06:41:25;4.88;;;2.80;;
8536;SDS011;4306;50.210;10.628;2023-12-28T06:43:53;3.92;;;2.40;;
8536;SDS011;4306;50.210;10.628;2023-12-28T06:46:20;5.20;;;2.70;;
8536;SDS011;4306;50.210;10.628;2023-12-28T06:48:47;5.15;;;2.80;;
8536;SDS011;4306;50.210;10.628;2023-12-28T06:51:17;6.50;;;3.25;;
8536;SDS011;4306;50.210;10.628;2023-12-28T06:53:45;4.77;;;3.00;;
8536;SDS011;4306;50.210;10.628;2023-12-28T06:56:12;4.85;;;3.15;;
8536;SDS011;4306;50.210;10.628;2023-12-28T06:58:41;5.28;;;3.30;;
8536;SDS011;4306;50.210;10.628;2023-12-28T07:01:08;6.67;;;4.20;;
8536;SDS011;4306;50.210;10.628;2023-12-28T07:03:36;5.28;;;3.25;;
8536;SDS011;4306;50.210;10.628;2023-12-28T07:06:03;6.68;;;3.20;;
8536;SDS011;4306;50.210;10.628;2023-12-28T07:08:30;5.28;;;3.03;;
8536;SDS011;4306;50.210;10.628;2023-12-28T07:10:57;3.80;;;2.50;;
8536;SDS011;4306;50.210;10.628;2023-12-28T07:13:24;5.75;;;3.60;;
8536;SDS011;4306;50.210;10.628;2023-12-28T07:15:52;6.32;;;3.38;;
8536;SDS011;4306;50.210;10.628;2023-12-28T07:18:19;4.60;;;2.90;;
8536;SDS011;4306;50.210;10.628;2023-12-28T07:20:46;4.70;;;2.83;;
8536;SDS011;4306;50.210;10.628;2023-12-28T07:23:14;6.80;;;3.58;;
8536;SDS011;4306;50.210;10.628;2023-12-28T07:25:42;4.22;;;2.58;;
8536;SDS011;4306;50.210;10.628;2023-12-28T07:28:09;4.57;;;2.60;;
8536;SDS011;4306;50.210;10.628;2023-12-28T07:30:36;5.10;;;2.77;;
8536;SDS011;4306;50.210;10.628;2023-12-28T07:33:05;5.60;;;4.10;;
8536;SDS011;4306;50.210;10.628;2023-12-28T07:35:32;6.28;;;4.45;;
8536;SDS011;4306;50.210;10.628;2023-12-28T07:37:59;10.75;;;5.00;;
8536;SDS011;4306;50.210;10.628;2023-12-28T07:40:26;6.38;;;4.85;;
8536;SDS011;4306;50.210;10.628;2023-12-28T07:42:53;8.10;;;4.93;;
8536;SDS011;4306;50.210;10.628;2023-12-28T07:45:21;6.13;;;3.83;;
8536;SDS011;4306;50.210;10.628;2023-12-28T07:47:49;5.77;;;3.30;;
8536;SDS011;4306;50.210;10.628;2023-12-28T07:50:18;8.20;;;5.55;;
8536;SDS011;4306;50.210;10.628;2023-12-28T07:52:47;9.00;;;5.22;;
8536;SDS011;4306;50.210;10.628;2023-12-28T07:55:14;6.70;;;3.30;;
8536;SDS011;4306;50.210;10.628;2023-12-28T07:57:42;4.57;;;2.30;;
8536;SDS011;4306;50.210;10.628;2023-12-28T08:00:09;4.10;;;2.75;;
8536;SDS011;4306;50.210;10.628;2023-12-28T08:02:37;4.93;;;2.72;;
8536;SDS011;4306;50.210;10.628;2023-12-28T08:05:04;4.75;;;2.92;;
8536;SDS011;4306;50.210;10.628;2023-12-28T08:07:33;4.03;;;2.50;;
8536;SDS011;4306;50.210;10.628;2023-12-28T08:10:01;4.22;;;2.33;;
8536;SDS011;4306;50.210;10.628;2023-12-28T08:12:28;4.18;;;2.30;;
8536;SDS011;4306;50.210;10.628;2023-12-28T08:14:55;4.80;;;2.90;;
8536;SDS011;4306;50.210;10.628;2023-12-28T08:17:22;4.05;;;2.60;;
8536;SDS011;4306;50.210;10.628;2023-12-28T08:19:49;5.30;;;2.72;;
8536;SDS011;4306;50.210;10.628;2023-12-28T08:22:17;5.03;;;2.92;;
8536;SDS011;4306;50.210;10.628;2023-12-28T08:24:46;4.32;;;2.80;;
8536;SDS011;4306;50.210;10.628;2023-12-28T08:27:13;4.75;;;3.00;;
8536;SDS011;4306;50.210;10.628;2023-12-28T08:29:40;5.30;;;3.15;;
8536;SDS011;4306;50.210;10.628;2023-12-28T08:32:08;6.45;;;3.60;;
8536;SDS011;4306;50.210;10.628;2023-12-28T08:34:35;5.28;;;2.95;;
8536;SDS011;4306;50.210;10.628;2023-12-28T08:37:02;4.70;;;3.05;;
8536;SDS011;4306;50.210;10.628;2023-12-28T08:39:30;5.15;;;2.35;;
8536;SDS011;4306;50.210;10.628;2023-12-28T08:41:58;4.38;;;2.60;;
8536;SDS011;4306;50.210;10.628;2023-12-28T08:44:25;3.83;;;2.22;;
8536;SDS011;4306;50.210;10.628;2023-12-28T08:46:52;6.55;;;2.42;;
8536;SDS011;4306;50.210;10.628;2023-12-28T08:49:19;3.00;;;2.10;;
8536;SDS011;4306;50.210;10.628;2023-12-28T08:51:47;6.55;;;1.77;;
8536;SDS011;4306;50.210;10.628;2023-12-28T08:54:14;3.92;;;2.25;;
8536;SDS011;4306;50.210;10.628;2023-12-28T08:56:41;5.90;;;2.17;;
8536;SDS011;4306;50.210;10.628;2023-12-28T08:59:10;5.97;;;2.90;;
8536;SDS011;4306;50.210;10.628;2023-12-28T09:01:37;5.00;;;3.05;;
8536;SDS011;4306;50.210;10.628;2023-12-28T09:04:04;5.25;;;3.05;;
8536;SDS011;4306;50.210;10.628;2023-12-28T09:06:31;4.68;;;2.35;;
8536;SDS011;4306;50.210;10.628;2023-12-28T09:08:57;4.50;;;2.50;;
8536;SDS011;4306;50.210;10.628;2023-12-28T09:11:24;3.97;;;2.10;;
8536;SDS011;4306;50.210;10.628;2023-12-28T09:13:52;4.55;;;2.72;;
8536;SDS011;4306;50.210;10.628;2023-12-28T09:16:21;4.90;;;2.50;;
8536;SDS011;4306;50.210;10.628;2023-12-28T09:18:48;7.05;;;2.42;;
8536;SDS011;4306;50.210;10.628;2023-12-28T09:21:16;5.35;;;3.33;;
8536;SDS011;4306;50.210;10.628;2023-12-28T09:23:43;5.20;;;2.90;;
8536;SDS011;4306;50.210;10.628;2023-12-28T09:26:10;5.30;;;3.30;;
8536;SDS011;4306;50.210;10.628;2023-12-28T09:28:37;4.30;;;2.70;;
8536;SDS011;4306;50.210;10.628;2023-12-28T09:31:05;4.28;;;2.53;;
8536;SDS011;4306;50.210;10.628;2023-12-28T09:33:33;3.78;;;2.33;;
8536;SDS011;4306;50.210;10.628;2023-12-28T09:36:02;3.90;;;2.38;;
8536;SDS011;4306;50.210;10.628;2023-12-28T09:38:30;4.25;;;2.25;;
8536;SDS011;4306;50.210;10.628;2023-12-28T09:40:58;5.50;;;3.03;;
8536;SDS011;4306;50.210;10.628;2023-12-28T09:43:37;3.60;;;2.20;;
8536;SDS011;4306;50.210;10.628;2023-12-28T09:46:07;2.78;;;1.80;;
8536;SDS011;4306;50.210;10.628;2023-12-28T09:48:38;3.25;;;1.75;;
8536;SDS011;4306;50.210;10.628;2023-12-28T09:51:05;5.43;;;1.67;;
8536;SDS011;4306;50.210;10.628;2023-12-28T09:53:32;4.75;;;1.73;;
8536;SDS011;4306;50.210;10.628;2023-12-28T09:56:00;4.30;;;1.98;;
8536;SDS011;4306;50.210;10.628;2023-12-28T09:58:29;3.63;;;2.15;;
8536;SDS011;4306;50.210;10.628;2023-12-28T10:00:57;3.25;;;2.10;;
8536;SDS011;4306;50.210;10.628;2023-12-28T10:03:26;3.67;;;2.00;;
8536;SDS011;4306;50.210;10.628;2023-12-28T10:05:55;3.20;;;1.90;;
8536;SDS011;4306;50.210;10.628;2023-12-28T10:08:21;3.47;;;2.10;;
8536;SDS011;4306;50.210;10.628;2023-12-28T10:10:49;3.72;;;2.17;;
8536;SDS011;4306;50.210;10.628;2023-12-28T10:13:19;2.80;;;1.85;;
8536;SDS011;4306;50.210;10.628;2023-12-28T10:15:46;4.07;;;2.00;;
8536;SDS011;4306;50.210;10.628;2023-12-28T10:18:16;3.22;;;2.00;;
8536;SDS011;4306;50.210;10.628;2023-12-28T10:20:48;2.78;;;1.83;;
8536;SDS011;4306;50.210;10.628;2023-12-28T10:23:17;4.43;;;2.00;;
8536;SDS011;4306;50.210;10.628;2023-12-28T10:25:46;3.60;;;2.22;;
8536;SDS011;4306;50.210;10.628;2023-12-28T10:28:13;4.68;;;2.30;;
8536;SDS011;4306;50.210;10.628;2023-12-28T10:30:44;5.43;;;2.83;;
8536;SDS011;4306;50.210;10.628;2023-12-28T10:33:11;3.75;;;2.53;;
8536;SDS011;4306;50.210;10.628;2023-12-28T10:35:40;4.15;;;3.05;;
8536;SDS011;4306;50.210;10.628;2023-12-28T10:38:09;3.67;;;2.00;;
8536;SDS011;4306;50.210;10.628;2023-12-28T10:40:41;2.88;;;2.13;;
8536;SDS011;4306;50.210;10.628;2023-12-28T10:43:09;3.60;;;1.98;;
8536;SDS011;4306;50.210;10.628;2023-12-28T10:45:41;4.30;;;2.40;;
8536;SDS011;4306;50.210;10.628;2023-12-28T10:48:13;3.00;;;1.75;;
8536;SDS011;4306;50.210;10.628;2023-12-28T10:50:43;4.82;;;2.65;;
8536;SDS011;4306;50.210;10.628;2023-12-28T10:53:19;6.15;;;3.10;;
8536;SDS011;4306;50.210;10.628;2023-12-28T10:56:03;4.00;;;2.65;;
8536;SDS011;4306;50.210;10.628;2023-12-28T10:58:48;5.00;;;3.03;;
8536;SDS011;4306;50.210;10.628;2023-12-28T11:01:18;4.88;;;3.15;;
8536;SDS011;4306;50.210;10.628;2023-12-28T11:03:52;4.13;;;2.97;;
8536;SDS011;4306;50.210;10.628;2023-12-28T11:06:25;7.35;;;4.13;;
8536;SDS011;4306;50.210;10.628;2023-12-28T11:08:55;6.63;;;5.45;;
8536;SDS011;4306;50.210;10.628;2023-12-28T11:11:25;4.75;;;3.53;;
8536;SDS011;4306;50.210;10.628;2023-12-28T11:13:54;6.72;;;4.20;;
8536;SDS011;4306;50.210;10.628;2023-12-28T11:16:22;9.98;;;5.50;;
8536;SDS011;4306;50.210;10.628;2023-12-28T11:18:49;8.00;;;4.43;;
8536;SDS011;4306;50.210;10.628;2023-12-28T11:21:17;4.22;;;2.83;;
8536;SDS011;4306;50.210;10.628;2023-12-28T11:23:45;3.65;;;2.78;;
8536;SDS011;4306;50.210;10.628;2023-12-28T11:26:16;5.20;;;2.75;;
8536;SDS011;4306;50.210;10.628;2023-12-28T11:28:44;4.70;;;2.70;;
8536;SDS011;4306;50.210;10.628;2023-12-28T11:31:13;4.13;;;2.83;;
8536;SDS011;4306;50.210;10.628;2023-12-28T11:33:44;3.05;;;2.15;;
8536;SDS011;4306;50.210;10.628;2023-12-28T11:36:12;4.35;;;2.38;;
8536;SDS011;4306;50.210;10.628;2023-12-28T11:38:49;5.72;;;2.88;;
8536;SDS011;4306;50.210;10.628;2023-12-28T11:41:19;4.40;;;3.05;;
8536;SDS011;4306;50.210;10.628;2023-12-28T11:43:52;2.97;;;2.00;;
8536;SDS011;4306;50.210;10.628;2023-12-28T11:46:20;2.42;;;1.83;;
8536;SDS011;4306;50.210;10.628;2023-12-28T11:48:48;3.17;;;2.10;;
8536;SDS011;4306;50.210;10.628;2023-12-28T11:51:15;3.30;;;2.15;;
8536;SDS011;4306;50.210;10.628;2023-12-28T11:53:43;2.83;;;1.70;;
8536;SDS011;4306;50.210;10.628;2023-12-28T11:56:14;4.47;;;2.45;;
8536;SDS011;4306;50.210;10.628;2023-12-28T11:58:42;2.72;;;1.80;;
8536;SDS011;4306;50.210;10.628;2023-12-28T12:01:12;3.55;;;2.00;;
8536;SDS011;4306;50.210;10.628;2023-12-28T12:03:39;3.60;;;1.80;;
8536;SDS011;4306;50.210;10.628;2023-12-28T12:06:06;4.00;;;2.40;;
8536;SDS011;4306;50.210;10.628;2023-12-28T12:08:33;3.88;;;1.90;;
8536;SDS011;4306;50.210;10.628;2023-12-28T12:11:00;2.78;;;1.90;;
8536;SDS011;4306;50.210;10.628;2023-12-28T12:13:29;6.30;;;1.77;;
8536;SDS011;4306;50.210;10.628;2023-12-28T12:15:56;2.85;;;1.90;;
8536;SDS011;4306;50.210;10.628;2023-12-28T12:18:25;2.42;;;1.77;;
8536;SDS011;4306;50.210;10.628;2023-12-28T12:20:52;4.57;;;1.90;;
8536;SDS011;4306;50.210;10.628;2023-12-28T12:23:19;4.63;;;3.25;;
8536;SDS011;4306;50.210;10.628;2023-12-28T12:25:46;6.22;;;2.70;;
8536;SDS011;4306;50.210;10.628;2023-12-28T12:28:13;5.68;;;2.53;;
8536;SDS011;4306;50.210;10.628;2023-12-28T12:30:40;7.15;;;2.67;;
8536;SDS011;4306;50.210;10.628;2023-12-28T12:33:16;6.00;;;2.58;;
8536;SDS011;4306;50.210;10.628;2023-12-28T12:35:44;8.48;;;4.10;;
8536;SDS011;4306;50.210;10.628;2023-12-28T12:38:11;3.70;;;2.10;;
8536;SDS011;4306;50.210;10.628;2023-12-28T12:40:39;5.68;;;3.00;;
8536;SDS011;4306;50.210;10.628;2023-12-28T12:43:06;5.30;;;2.45;;
8536;SDS011;4306;50.210;10.628;2023-12-28T12:45:34;6.55;;;3.25;;
8536;SDS011;4306;50.210;10.628;2023-12-28T12:48:01;5.38;;;2.72;;
8536;SDS011;4306;50.210;10.628;2023-12-28T12:50:30;5.00;;;3.17;;
8536;SDS011;4306;50.210;10.628;2023-12-28T12:53:00;4.55;;;2.45;;
8536;SDS011;4306;50.210;10.628;2023-12-28T12:55:27;3.60;;;1.85;;
8536;SDS011;4306;50.210;10.628;2023-12-28T12:57:54;3.75;;;2.08;;
8536;SDS011;4306;50.210;10.628;2023-12-28T13:00:21;3.20;;;2.03;;
8536;SDS011;4306;50.210;10.628;2023-12-28T13:02:49;5.18;;;2.35;;
8536;SDS011;4306;50.210;10.628;2023-12-28T13:05:18;2.70;;;1.50;;
8536;SDS011;4306;50.210;10.628;2023-12-28T13:07:45;7.60;;;4.82;;
8536;SDS011;4306;50.210;10.628;2023-12-28T13:10:14;4.50;;;2.50;;
8536;SDS011;4306;50.210;10.628;2023-12-28T13:12:41;4.03;;;2.40;;
8536;SDS011;4306;50.210;10.628;2023-12-28T13:15:08;4.20;;;1.50;;
8536;SDS011;4306;50.210;10.628;2023-12-28T13:17:36;3.35;;;2.03;;
8536;SDS011;4306;50.210;10.628;2023-12-28T13:20:03;2.85;;;1.70;;
8536;SDS011;4306;50.210;10.628;2023-12-28T13:22:31;4.55;;;2.55;;
8536;SDS011;4306;50.210;10.628;2023-12-28T13:24:59;7.60;;;3.03;;
8536;SDS011;4306;50.210;10.628;2023-12-28T13:27:28;6.25;;;2.55;;
8536;SDS011;4306;50.210;10.628;2023-12-28T13:29:56;4.90;;;2.20;;
8536;SDS011;4306;50.210;10.628;2023-12-28T13:32:23;4.00;;;2.25;;
8536;SDS011;4306;50.210;10.628;2023-12-28T13:34:50;5.40;;;2.78;;
8536;SDS011;4306;50.210;10.628;2023-12-28T13:37:17;8.77;;;5.97;;
8536;SDS011;4306;50.210;10.628;2023-12-28T13:39:44;8.50;;;4.82;;
8536;SDS011;4306;50.210;10.628;2023-12-28T13:42:12;4.68;;;2.75;;
8536;SDS011;4306;50.210;10.628;2023-12-28T13:44:40;7.88;;;4.38;;
8536;SDS011;4306;50.210;10.628;2023-12-28T13:47:08;5.00;;;3.05;;
8536;SDS011;4306;50.210;10.628;2023-12-28T13:49:35;6.20;;;2.50;;
8536;SDS011;4306;50.210;10.628;2023-12-28T13:52:02;6.63;;;2.70;;
8536;SDS011;4306;50.210;10.628;2023-12-28T13:54:30;4.95;;;2.53;;
8536;SDS011;4306;50.210;10.628;2023-12-28T13:56:57;4.78;;;2.78;;
8536;SDS011;4306;50.210;10.628;2023-12-28T13:59:25;5.07;;;3.45;;
8536;SDS011;4306;50.210;10.628;2023-12-28T14:01:53;7.25;;;5.07;;
8536;SDS011;4306;50.210;10.628;2023-12-28T14:04:20;6.40;;;3.70;;
8536;SDS011;4306;50.210;10.628;2023-12-28T14:06:47;5.82;;;3.72;;
8536;SDS011;4306;50.210;10.628;2023-12-28T14:09:14;5.70;;;2.70;;
8536;SDS011;4306;50.210;10.628;2023-12-28T14:11:45;3.58;;;2.25;;
8536;SDS011;4306;50.210;10.628;2023-12-28T14:14:12;4.20;;;3.20;;
8536;SDS011;4306;50.210;10.628;2023-12-28T14:16:39;7.95;;;4.38;;
8536;SDS011;4306;50.210;10.628;2023-12-28T14:19:08;5.43;;;3.75;;
8536;SDS011;4306;50.210;10.628;2023-12-28T14:21:35;4.47;;;2.63;;
8536;SDS011;4306;50.210;10.628;2023-12-28T14:24:03;4.15;;;3.00;;
8536;SDS011;4306;50.210;10.628;2023-12-28T14:26:32;4.10;;;2.50;;
8536;SDS011;4306;50.210;10.628;2023-12-28T14:29:00;4.63;;;2.70;;
8536;SDS011;4306;50.210;10.628;2023-12-28T14:31:30;4.82;;;2.72;;
8536;SDS011;4306;50.210;10.628;2023-12-28T14:33:58;5.20;;;2.17;;
8536;SDS011;4306;50.210;10.628;2023-12-28T14:36:29;4.80;;;2.60;;
8536;SDS011;4306;50.210;10.628;2023-12-28T14:38:59;3.40;;;2.50;;
8536;SDS011;4306;50.210;10.628;2023-12-28T14:41:27;4.32;;;2.60;;
8536;SDS011;4306;50.210;10.628;2023-12-28T14:43:55;4.47;;;2.55;;
8536;SDS011;4306;50.210;10.628;2023-12-28T14:46:22;5.93;;;3.28;;
8536;SDS011;4306;50.210;10.628;2023-12-28T14:48:50;3.60;;;2.50;;
8536;SDS011;4306;50.210;10.628;2023-12-28T14:51:17;5.13;;;2.38;;
8536;SDS011;4306;50.210;10.628;2023-12-28T14:53:45;5.00;;;3.38;;
8536;SDS011;4306;50.210;10.628;2023-12-28T14:56:13;5.28;;;3.30;;
8536;SDS011;4306;50.210;10.628;2023-12-28T14:58:40;6.55;;;3.22;;
8536;SDS011;4306;50.210;10.628;2023-12-28T15:01:10;6.03;;;3.20;;
8536;SDS011;4306;50.210;10.628;2023-12-28T15:03:39;5.43;;;2.75;;
8536;SDS011;4306;50.210;10.628;2023-12-28T15:06:06;6.00;;;3.08;;
8536;SDS011;4306;50.210;10.628;2023-12-28T15:08:34;6.25;;;3.33;;